Time;durP1;ratioP1;P1;durP2;ratioP2;P2;SDS_P1;SDS_P2;PMS_P1;PMS_P2;Temp;Humidity;BMP_temperature;BMP_pressure;BME280_temperature;BME280_humidity;BME280_pressure;Samples;Min_cycle;Max_cycle;Signal;HPM_P1;HPM_P2
2023/07/08 00:00:16;;;;;;;11.60;6.43;;;21.80;99.90;;;;;;5031549;28;20273;-73
2023/07/08 00:02:42;;;;;;;9.63;5.90;;;21.80;99.90;;;;;;5031658;28;20214;-73
2023/07/08 00:05:10;;;;;;;10.70;5.70;;;21.80;99.90;;;;;;5031485;28;20696;-74
2023/07/08 00:07:36;;;;;;;13.00;6.32;;;21.80;1.00;;;;;;5031606;28;20217;-72
2023/07/08 00:10:10;;;;;;;10.23;5.50;;;21.70;1.00;;;;;;5031930;28;20161;-73
2023/07/08 00:12:35;;;;;;;11.45;5.30;;;21.70;1.00;;;;;;5031112;28;20222;-74
2023/07/08 00:15:01;;;;;;;11.93;5.72;;;21.70;1.00;;;;;;5020424;28;20185;-72
2023/07/08 00:17:26;;;;;;;7.82;5.47;;;21.70;1.00;;;;;;5011462;28;20696;-73
2023/07/08 00:19:54;;;;;;;10.75;5.63;;;21.70;1.00;;;;;;5010041;28;20182;-73
2023/07/08 00:22:20;;;;;;;10.88;5.28;;;21.70;1.00;;;;;;5011402;28;20261;-72
2023/07/08 00:24:45;;;;;;;10.32;5.68;;;21.70;1.00;;;;;;5011207;28;20257;-73
2023/07/08 00:27:15;;;;;;;11.30;5.32;;;21.60;50.90;;;;;;5011191;28;20171;-73
2023/07/08 00:29:41;;;;;;;9.43;5.60;;;21.70;73.50;;;;;;5011645;28;20188;-73
2023/07/08 00:32:15;;;;;;;7.95;5.10;;;21.60;1.00;;;;;;5011238;28;20782;-73
2023/07/08 00:34:41;;;;;;;11.25;5.80;;;21.70;1.00;;;;;;5026393;28;20174;-73
2023/07/08 00:37:13;;;;;;;7.88;5.18;;;21.60;1.00;;;;;;5011374;28;20224;-73
2023/07/08 00:39:39;;;;;;;10.13;5.80;;;21.70;1.00;;;;;;5026370;28;20198;-73
2023/07/08 00:42:17;;;;;;;10.57;5.82;;;21.60;99.90;;;;;;5011286;28;20178;-72
2023/07/08 00:44:44;;;;;;;10.05;5.82;;;21.60;1.00;;;;;;5011151;28;20657;-73
2023/07/08 00:47:12;;;;;;;12.20;5.80;;;21.40;97.30;;;;;;5011075;28;20174;-73
2023/07/08 00:50:00;;;;;;;12.18;5.35;;;21.40;1.00;;;;;;5011319;28;20262;-73
2023/07/08 00:52:29;;;;;;;13.68;5.88;;;21.30;1.00;;;;;;5010959;28;20202;-73
2023/07/08 00:55:04;;;;;;;9.98;5.35;;;21.20;1.00;;;;;;5011152;28;20254;-73
2023/07/08 00:57:37;;;;;;;9.95;5.63;;;21.10;1.00;;;;;;5011063;28;20177;-74
2023/07/08 01:00:15;;;;;;;9.07;5.85;;;21.10;1.00;;;;;;5011027;28;20185;-72
2023/07/08 01:02:51;;;;;;;13.45;5.43;;;21.10;1.00;;;;;;5010994;28;20169;-73
2023/07/08 01:05:25;;;;;;;10.70;6.22;;;21.00;1.00;;;;;;5014812;28;20174;-73
2023/07/08 01:07:58;;;;;;;10.18;5.32;;;21.00;1.00;;;;;;5014859;28;20216;-74
2023/07/08 01:10:39;;;;;;;10.00;5.80;;;20.90;1.00;;;;;;5014556;28;20189;-72
2023/07/08 01:13:07;;;;;;;10.75;5.63;;;20.90;1.00;;;;;;5014289;28;20217;-73
2023/07/08 01:15:42;;;;;;;10.38;5.55;;;20.90;1.00;;;;;;5014833;28;20171;-74
2023/07/08 01:18:11;;;;;;;12.32;5.90;;;20.90;1.00;;;;;;5014959;28;20201;-74
2023/07/08 01:20:37;;;;;;;12.70;6.05;;;20.90;1.00;;;;;;5014702;28;20213;-74
2023/07/08 01:23:04;;;;;;;14.07;5.90;;;20.90;1.00;;;;;;5014622;28;20191;-74
2023/07/08 01:25:31;;;;;;;12.82;5.82;;;21.00;1.00;;;;;;5014650;28;20189;-73
2023/07/08 01:27:57;;;;;;;10.20;5.65;;;21.10;1.00;;;;;;5029875;28;20171;-74
2023/07/08 01:30:25;;;;;;;10.23;5.75;;;21.10;1.00;;;;;;5014723;28;20265;-73
2023/07/08 01:32:56;;;;;;;11.20;5.60;;;21.10;1.00;;;;;;5014487;28;20660;-73
2023/07/08 01:35:22;;;;;;;14.50;6.07;;;21.10;1.00;;;;;;5014499;28;20193;-73
2023/07/08 01:37:59;;;;;;;11.73;6.47;;;20.90;99.90;;;;;;5014468;28;20167;-72
2023/07/08 01:40:29;;;;;;;10.70;5.00;;;20.90;99.90;;;;;;5014475;28;20182;-73
2023/07/08 01:42:55;;;;;;;10.13;5.45;;;20.90;99.90;;;;;;5014417;28;20177;-73
2023/07/08 01:45:23;;;;;;;14.20;5.53;;;20.90;1.00;;;;;;5014219;28;20166;-72
2023/07/08 01:47:57;;;;;;;10.45;5.97;;;20.90;99.90;;;;;;5014210;28;20189;-72
2023/07/08 01:50:24;;;;;;;13.00;5.78;;;20.90;99.90;;;;;;5014092;28;20257;-72
2023/07/08 01:52:52;;;;;;;12.75;5.57;;;21.10;1.00;;;;;;5014465;28;20200;-73
2023/07/08 01:55:23;;;;;;;9.45;6.07;;;20.90;1.00;;;;;;5013954;28;20201;-72
2023/07/08 01:57:51;;;;;;;10.25;5.15;;;20.80;1.00;;;;;;5014122;28;20262;-73
2023/07/08 02:00:17;;;;;;;12.02;5.75;;;20.90;1.00;;;;;;5013856;28;20564;-73
2023/07/08 02:02:42;;;;;;;11.10;5.22;;;20.90;1.00;;;;;;5013965;28;20170;-73
2023/07/08 02:05:08;;;;;;;10.05;5.78;;;20.90;1.00;;;;;;5013858;28;20171;-72
2023/07/08 02:07:34;;;;;;;13.35;5.82;;;20.90;1.00;;;;;;5013918;28;20558;-72
2023/07/08 02:09:59;;;;;;;9.93;5.95;;;20.90;1.00;;;;;;5013851;28;20232;-73
2023/07/08 02:12:25;;;;;;;10.25;5.45;;;21.00;1.00;;;;;;5013524;28;20234;-72
2023/07/08 02:14:50;;;;;;;8.88;5.13;;;21.00;1.00;;;;;;5013219;28;20175;-73
2023/07/08 02:17:16;;;;;;;8.57;5.18;;;20.90;1.00;;;;;;5014081;28;20316;-73
2023/07/08 02:19:43;;;;;;;8.43;5.57;;;21.00;1.00;;;;;;5013639;28;20171;-73
2023/07/08 02:22:09;;;;;;;8.30;5.57;;;21.00;1.00;;;;;;5013538;28;20533;-73
2023/07/08 02:24:34;;;;;;;9.70;5.20;;;21.10;1.00;;;;;;5013475;28;20186;-73
2023/07/08 02:27:00;;;;;;;11.05;5.00;;;21.10;1.00;;;;;;5013425;28;20179;-73
2023/07/08 02:29:26;;;;;;;13.43;4.95;;;21.10;1.00;;;;;;5013276;28;20182;-72
2023/07/08 02:31:51;;;;;;;8.88;5.57;;;21.20;1.00;;;;;;5013249;28;20214;-72
2023/07/08 02:34:17;;;;;;;9.93;5.40;;;21.20;1.00;;;;;;5013226;28;20633;-72
2023/07/08 02:36:43;;;;;;;10.90;6.10;;;21.20;1.00;;;;;;5013295;28;20186;-72
2023/07/08 02:39:09;;;;;;;9.95;4.68;;;21.20;1.00;;;;;;5013277;28;20249;-72
2023/07/08 02:41:35;;;;;;;9.75;5.35;;;21.20;2.20;;;;;;5013185;28;20669;-73
2023/07/08 02:44:01;;;;;;;12.65;5.88;;;21.20;99.90;;;;;;5013208;28;20171;-72
2023/07/08 02:46:26;;;;;;;12.60;5.72;;;21.10;99.90;;;;;;5013062;28;20171;-73
2023/07/08 02:48:52;;;;;;;16.33;6.10;;;21.10;1.00;;;;;;5013073;28;20233;-72
2023/07/08 02:51:18;;;;;;;8.43;5.25;;;21.00;1.00;;;;;;5013374;28;20198;-72
2023/07/08 02:53:43;;;;;;;9.13;5.50;;;21.00;1.00;;;;;;5013498;28;20236;-73
2023/07/08 02:56:09;;;;;;;13.70;5.68;;;21.00;1.00;;;;;;5012949;28;20167;-73
2023/07/08 02:58:35;;;;;;;15.35;6.95;;;21.00;99.90;;;;;;5012923;28;20182;-73
2023/07/08 03:01:00;;;;;;;16.73;7.07;;;20.90;99.90;;;;;;5012896;28;20166;-72
2023/07/08 03:03:30;;;;;;;12.32;5.90;;;20.90;1.00;;;;;;5012641;28;20182;-72
2023/07/08 03:06:03;;;;;;;10.88;6.38;;;20.90;1.00;;;;;;5012860;28;20258;-72
2023/07/08 03:08:29;;;;;;;14.88;5.78;;;20.90;1.00;;;;;;5012666;28;20175;-72
2023/07/08 03:11:00;;;;;;;9.38;5.50;;;20.80;58.50;;;;;;5017470;28;20241;-72
2023/07/08 03:13:27;;;;;;;15.98;6.55;;;20.80;99.90;;;;;;5032294;28;20222;-73
2023/07/08 03:15:54;;;;;;;10.48;5.88;;;20.80;1.00;;;;;;5023058;28;20174;-73
2023/07/08 03:18:21;;;;;;;13.77;6.05;;;20.80;1.00;;;;;;5012527;28;20170;-72
2023/07/08 03:20:48;;;;;;;13.55;6.47;;;20.80;1.00;;;;;;5012517;28;20178;-72
2023/07/08 03:23:14;;;;;;;17.58;5.65;;;20.70;1.00;;;;;;5012270;28;20178;-72
2023/07/08 03:25:39;;;;;;;11.52;5.95;;;20.70;1.00;;;;;;5012156;28;20601;-73
2023/07/08 03:28:06;;;;;;;10.45;6.20;;;20.70;99.90;;;;;;5020834;28;20529;-73
2023/07/08 03:30:32;;;;;;;14.55;5.93;;;20.70;99.90;;;;;;5031740;28;20730;-72
2023/07/08 03:32:58;;;;;;;14.02;6.20;;;20.70;99.90;;;;;;5031915;28;20261;-73
2023/07/08 03:35:24;;;;;;;12.52;6.28;;;20.60;1.00;;;;;;5031940;28;20177;-72
2023/07/08 03:37:51;;;;;;;11.75;6.30;;;20.60;1.00;;;;;;5031896;28;20240;-72
2023/07/08 03:40:16;;;;;;;12.05;5.90;;;20.50;1.00;;;;;;5031866;28;20170;-73
2023/07/08 03:42:42;;;;;;;13.82;5.80;;;20.50;1.00;;;;;;5031811;28;20728;-72
2023/07/08 03:45:08;;;;;;;13.25;5.80;;;20.50;1.00;;;;;;5031532;28;20686;-72
2023/07/08 03:47:34;;;;;;;14.38;5.57;;;20.50;1.00;;;;;;5031674;28;20235;-73
2023/07/08 03:49:59;;;;;;;11.88;5.45;;;20.40;1.00;;;;;;5031807;28;20253;-73
2023/07/08 03:52:25;;;;;;;14.27;5.97;;;20.50;49.60;;;;;;5031435;28;20213;-72
2023/07/08 03:54:50;;;;;;;11.85;5.63;;;20.50;97.50;;;;;;5031469;28;20166;-72
2023/07/08 03:57:16;;;;;;;8.68;5.30;;;20.40;99.90;;;;;;5031282;28;20192;-72
2023/07/08 03:59:42;;;;;;;12.13;5.65;;;;;;;;;;5031368;28;20299;-72
2023/07/08 04:02:11;;;;;;;13.63;5.88;;;20.50;99.90;;;;;;5031359;28;20176;-73
2023/07/08 04:04:37;;;;;;;14.68;5.60;;;20.50;99.90;;;;;;5031463;28;20180;-72
2023/07/08 04:07:04;;;;;;;9.50;5.50;;;20.60;99.90;;;;;;5031542;28;20182;-73
2023/07/08 04:09:30;;;;;;;13.68;5.45;;;20.60;99.90;;;;;;5031332;28;20166;-72
2023/07/08 04:11:57;;;;;;;10.13;5.82;;;;;;;;;;5030928;28;20291;-71
2023/07/08 04:14:23;;;;;;;13.63;5.68;;;20.60;99.90;;;;;;5031127;28;20659;-72
2023/07/08 04:16:57;;;;;;;11.05;5.65;;;20.60;99.90;;;;;;5031327;28;20170;-71
2023/07/08 04:19:23;;;;;;;14.55;5.82;;;20.60;99.90;;;;;;5031115;28;20170;-72
2023/07/08 04:21:50;;;;;;;12.98;5.57;;;20.60;99.90;;;;;;5031144;28;20185;-72
2023/07/08 04:24:16;;;;;;;13.63;5.05;;;20.60;99.90;;;;;;5031145;28;20174;-72
2023/07/08 04:26:46;;;;;;;16.40;5.50;;;20.60;99.90;;;;;;5030983;28;20170;-72
2023/07/08 04:29:16;;;;;;;16.23;5.47;;;20.60;99.90;;;;;;5031251;28;20193;-71
2023/07/08 04:31:43;;;;;;;11.40;4.90;;;20.70;99.90;;;;;;5030949;28;20268;-72
2023/07/08 04:34:09;;;;;;;14.30;5.55;;;20.70;99.90;;;;;;5030965;28;20162;-73
2023/07/08 04:36:35;;;;;;;9.40;5.20;;;20.60;99.90;;;;;;5029844;28;20182;-72
2023/07/08 04:39:05;;;;;;;14.60;5.30;;;20.60;99.90;;;;;;5030531;28;20177;-73
2023/07/08 04:41:30;;;;;;;15.38;6.25;;;20.70;99.90;;;;;;5030832;28;20185;-72
2023/07/08 04:44:02;;;;;;;12.95;6.13;;;20.80;99.90;;;;;;5030736;28;20536;-73
2023/07/08 04:46:36;;;;;;;12.32;5.18;;;20.80;99.90;;;;;;5030946;28;20162;-73
2023/07/08 04:49:03;;;;;;;11.23;4.38;;;20.80;99.90;;;;;;5030817;28;20264;-72
2023/07/08 04:51:29;;;;;;;14.55;5.10;;;20.90;99.90;;;;;;5030729;28;20236;-72
2023/07/08 04:53:55;;;;;;;12.68;4.85;;;20.90;99.90;;;;;;5030790;28;20632;-72
2023/07/08 04:56:21;;;;;;;9.40;5.15;;;20.90;99.90;;;;;;5030821;28;20176;-72
2023/07/08 04:58:47;;;;;;;16.30;4.60;;;20.90;99.90;;;;;;5030805;28;20533;-72
2023/07/08 05:01:12;;;;;;;13.43;5.43;;;21.00;99.90;;;;;;5030877;28;20224;-73
2023/07/08 05:03:38;;;;;;;15.65;4.78;;;21.00;99.90;;;;;;5030757;28;20595;-73
2023/07/08 05:06:04;;;;;;;15.32;5.05;;;21.00;99.90;;;;;;5030679;28;20170;-72
2023/07/08 05:08:29;;;;;;;11.30;4.55;;;21.00;99.90;;;;;;5030528;28;20216;-73
2023/07/08 05:10:55;;;;;;;8.38;4.43;;;21.00;99.90;;;;;;5030762;28;20631;-73
2023/07/08 05:13:22;;;;;;;10.98;5.32;;;21.10;99.90;;;;;;5030390;28;20222;-73
2023/07/08 05:15:48;;;;;;;15.63;5.13;;;21.00;99.90;;;;;;5030354;28;20182;-73
2023/07/08 05:18:14;;;;;;;11.40;4.75;;;21.00;99.90;;;;;;5030442;28;20537;-73
2023/07/08 05:20:40;;;;;;;8.00;4.60;;;21.00;99.90;;;;;;5030442;28;20162;-72
2023/07/08 05:23:05;;;;;;;11.18;4.93;;;21.00;99.90;;;;;;5030452;28;20178;-72
2023/07/08 05:25:32;;;;;;;10.18;4.70;;;21.00;99.90;;;;;;5030551;28;20696;-73
2023/07/08 05:27:58;;;;;;;14.10;4.63;;;21.00;99.90;;;;;;5030406;28;20239;-72
2023/07/08 05:30:23;;;;;;;9.07;4.30;;;21.00;99.90;;;;;;5030495;28;20178;-73
2023/07/08 05:32:49;;;;;;;7.93;4.20;;;21.00;99.90;;;;;;5031340;28;20712;-71
2023/07/08 05:35:15;;;;;;;11.85;4.45;;;20.90;99.90;;;;;;5030964;28;20186;-71
2023/07/08 05:37:41;;;;;;;9.10;4.28;;;20.90;99.90;;;;;;5030372;28;20706;-71
2023/07/08 05:40:08;;;;;;;10.55;4.72;;;20.90;99.90;;;;;;5030638;28;20660;-72
2023/07/08 05:42:33;;;;;;;10.88;4.45;;;21.00;99.90;;;;;;5030437;28;20178;-72
2023/07/08 05:44:59;;;;;;;13.52;4.82;;;21.00;99.90;;;;;;5029183;28;20517;-73
2023/07/08 05:47:25;;;;;;;13.18;4.60;;;21.00;99.90;;;;;;5030332;28;20728;-72
2023/07/08 05:49:51;;;;;;;11.90;4.35;;;21.00;99.90;;;;;;5030354;28;20180;-73
2023/07/08 05:52:17;;;;;;;11.57;4.50;;;21.00;99.90;;;;;;5033918;28;20770;-73
2023/07/08 05:54:43;;;;;;;13.30;4.68;;;;;;;;;;5033795;28;20262;-72
2023/07/08 05:57:11;;;;;;;10.30;4.30;;;21.00;99.90;;;;;;5033705;28;20174;-72
2023/07/08 05:59:38;;;;;;;7.70;4.25;;;21.00;99.90;;;;;;5030298;28;20170;-73
2023/07/08 06:02:05;;;;;;;9.82;3.58;;;20.80;99.90;;;;;;5024143;28;20193;-73
2023/07/08 06:04:31;;;;;;;10.80;3.63;;;21.00;99.90;;;;;;5033772;28;20161;-70
2023/07/08 06:06:57;;;;;;;10.63;3.90;;;20.90;99.90;;;;;;5016216;28;20668;-72
2023/07/08 06:09:22;;;;;;;7.78;3.40;;;20.90;99.90;;;;;;5013746;28;20171;-72
2023/07/08 06:11:48;;;;;;;8.43;3.10;;;20.90;99.90;;;;;;5013509;28;20234;-72
2023/07/08 06:14:14;;;;;;;9.05;3.38;;;20.90;99.90;;;;;;5013771;28;20174;-73
2023/07/08 06:16:39;;;;;;;6.35;3.00;;;21.00;99.90;;;;;;5013612;28;20625;-73
2023/07/08 06:19:05;;;;;;;8.63;3.22;;;21.10;99.90;;;;;;5030343;28;20489;-73
2023/07/08 06:21:31;;;;;;;10.13;3.30;;;21.20;99.90;;;;;;5033325;28;20173;-71
2023/07/08 06:23:57;;;;;;;11.25;3.20;;;21.20;99.90;;;;;;5033506;28;20629;-73
2023/07/08 06:26:23;;;;;;;9.65;3.60;;;21.30;99.90;;;;;;5033393;28;20181;-73
2023/07/08 06:28:49;;;;;;;7.20;3.40;;;;;;;;;;5033119;28;20166;-73
2023/07/08 06:31:15;;;;;;;12.60;3.92;;;21.20;99.90;;;;;;5033055;28;20231;-73
2023/07/08 06:33:41;;;;;;;8.55;3.35;;;21.00;99.90;;;;;;5033063;28;20683;-73
2023/07/08 06:36:07;;;;;;;12.50;3.75;;;21.20;99.90;;;;;;5032926;28;20224;-72
2023/07/08 06:38:33;;;;;;;10.85;3.20;;;21.00;99.90;;;;;;5033048;28;20543;-72
2023/07/08 06:40:59;;;;;;;11.77;3.47;;;20.90;99.90;;;;;;5032952;28;20190;-72
2023/07/08 06:43:24;;;;;;;11.30;3.08;;;20.90;99.90;;;;;;5033135;28;20228;-73
2023/07/08 06:45:50;;;;;;;10.60;3.63;;;20.90;99.90;;;;;;5032895;28;20637;-72
2023/07/08 06:48:15;;;;;;;11.15;3.33;;;20.70;99.90;;;;;;5032788;28;20641;-72
2023/07/08 06:50:48;;;;;;;10.80;4.13;;;20.80;99.90;;;;;;5032739;28;20711;-72
2023/07/08 06:53:14;;;;;;;12.38;3.70;;;20.80;99.90;;;;;;5032836;28;20186;-72
2023/07/08 06:55:40;;;;;;;11.80;3.80;;;20.70;99.90;;;;;;5015209;28;20174;-71
2023/07/08 06:58:06;;;;;;;10.68;3.50;;;20.80;99.90;;;;;;5012902;28;20183;-71
2023/07/08 07:00:31;;;;;;;17.02;4.05;;;20.70;99.90;;;;;;5012694;28;20170;-71
2023/07/08 07:02:57;;;;;;;9.55;3.60;;;21.00;99.90;;;;;;5012563;28;20676;-72
2023/07/08 07:05:23;;;;;;;13.10;3.75;;;20.80;99.90;;;;;;5012599;28;20313;-72
2023/07/08 07:07:48;;;;;;;9.52;3.70;;;20.70;99.90;;;;;;5012752;28;20602;-72
2023/07/08 07:10:14;;;;;;;7.78;3.05;;;20.80;99.90;;;;;;5012721;28;20311;-72
2023/07/08 07:12:39;;;;;;;9.30;3.22;;;20.80;99.90;;;;;;5012428;28;20769;-73
2023/07/08 07:15:06;;;;;;;7.30;3.15;;;20.70;99.90;;;;;;5012481;28;20170;-73
2023/07/08 07:17:31;;;;;;;14.88;3.88;;;20.70;99.90;;;;;;5012383;28;20645;-72
2023/07/08 07:19:57;;;;;;;11.95;3.42;;;20.70;99.90;;;;;;5012416;28;20187;-73
2023/07/08 07:22:23;;;;;;;12.88;3.60;;;20.80;99.90;;;;;;5012489;28;20242;-73
2023/07/08 07:24:49;;;;;;;10.40;3.50;;;20.80;99.90;;;;;;5012326;28;20224;-72
2023/07/08 07:27:15;;;;;;;7.25;3.10;;;20.80;99.90;;;;;;5012370;28;20209;-72
2023/07/08 07:29:46;;;;;;;9.93;3.80;;;20.80;99.90;;;;;;5012327;28;20185;-73
2023/07/08 07:32:13;;;;;;;13.88;3.72;;;20.70;99.90;;;;;;5012254;28;20241;-73
2023/07/08 07:34:39;;;;;;;10.73;3.17;;;20.70;99.90;;;;;;5012299;28;20224;-72
2023/07/08 07:37:06;;;;;;;8.13;3.30;;;20.70;99.90;;;;;;5012272;28;20269;-73
2023/07/08 07:39:32;;;;;;;10.65;3.30;;;20.70;99.90;;;;;;5012177;28;20253;-72
2023/07/08 07:41:57;;;;;;;6.78;2.95;;;20.70;99.90;;;;;;5012126;28;20607;-70
2023/07/08 07:44:24;;;;;;;9.23;3.65;;;20.60;99.90;;;;;;5012192;28;20191;-73
2023/07/08 07:46:52;;;;;;;9.68;2.60;;;20.60;99.90;;;;;;5011947;28;20198;-73
2023/07/08 07:49:17;;;;;;;7.30;2.80;;;20.60;99.90;;;;;;5012114;28;20250;-73
2023/07/08 07:51:43;;;;;;;8.98;3.20;;;;;;;;;;5011850;28;20297;-73
2023/07/08 07:54:09;;;;;;;9.73;3.25;;;20.60;99.90;;;;;;5011979;28;20166;-74
2023/07/08 07:56:35;;;;;;;8.65;2.83;;;20.60;99.90;;;;;;5011905;28;20183;-73
2023/07/08 07:59:01;;;;;;;8.50;2.97;;;20.50;99.90;;;;;;5011795;28;20685;-75
2023/07/08 08:01:26;;;;;;;8.05;3.13;;;20.40;99.90;;;;;;5011682;28;20182;-73
2023/07/08 08:03:52;;;;;;;9.38;2.78;;;20.40;99.90;;;;;;5011741;28;20192;-73
2023/07/08 08:06:18;;;;;;;8.63;2.78;;;20.40;99.90;;;;;;5011823;28;20175;-72
2023/07/08 08:08:45;;;;;;;9.20;3.08;;;20.40;99.90;;;;;;5011589;28;20265;-73
2023/07/08 08:11:11;;;;;;;9.38;3.30;;;20.50;99.90;;;;;;5011443;28;20248;-72
2023/07/08 08:13:36;;;;;;;6.82;2.83;;;20.60;99.90;;;;;;5012487;28;20202;-72
2023/07/08 08:16:03;;;;;;;9.35;3.33;;;20.40;99.90;;;;;;5012585;28;20670;-72
2023/07/08 08:18:28;;;;;;;8.60;3.00;;;20.40;99.90;;;;;;5011808;28;20177;-73
2023/07/08 08:20:54;;;;;;;7.60;2.90;;;;;;;;;;5011476;28;20170;-72
2023/07/08 08:23:20;;;;;;;6.93;3.00;;;20.30;99.90;;;;;;5011493;28;20277;-72
2023/07/08 08:25:45;;;;;;;13.55;3.72;;;20.30;99.90;;;;;;5011336;28;20677;-72
2023/07/08 08:28:11;;;;;;;10.65;3.30;;;20.30;99.90;;;;;;5011440;28;20170;-72
2023/07/08 08:30:37;;;;;;;11.05;3.13;;;20.30;99.90;;;;;;5011125;28;20176;-71
2023/07/08 08:33:03;;;;;;;9.70;3.10;;;20.30;99.90;;;;;;5011304;28;20630;-72
2023/07/08 08:35:28;;;;;;;9.68;3.30;;;20.40;99.90;;;;;;5011401;28;20273;-70
2023/07/08 08:37:54;;;;;;;8.00;2.83;;;20.40;99.90;;;;;;5011318;28;20183;-71
2023/07/08 08:40:20;;;;;;;9.32;3.05;;;20.40;99.90;;;;;;5011186;28;20175;-71
2023/07/08 08:43:32;;;;;;;8.35;3.08;;;20.50;99.90;;;;;;5010920;28;20270;-71
2023/07/08 08:46:20;;;;;;;13.88;3.70;;;20.50;99.90;;;;;;5007924;28;20269;-71
2023/07/08 08:49:13;;;;;;;10.40;3.33;;;20.60;99.90;;;;;;5010640;28;20173;-71
2023/07/08 08:51:39;;;;;;;7.70;2.90;;;;;;;;;;5010406;28;20202;-72
2023/07/08 08:54:04;;;;;;;8.27;3.53;;;20.70;99.90;;;;;;5010397;28;20175;-73
2023/07/08 08:57:05;;;;;;;8.40;3.42;;;20.80;99.90;;;;;;5010216;28;20173;-73
2023/07/08 08:59:43;;;;;;;10.60;3.55;;;21.00;99.90;;;;;;5010207;28;20189;-72
2023/07/08 09:02:40;;;;;;;10.73;4.13;;;21.20;99.90;;;;;;5010808;28;20166;-71
2023/07/08 09:05:11;;;;;;;11.52;3.35;;;21.30;99.90;;;;;;5010247;28;20179;-71
2023/07/08 09:08:00;;;;;;;8.20;3.13;;;21.40;99.90;;;;;;5021670;28;20220;-72
2023/07/08 09:10:41;;;;;;;11.43;3.50;;;21.50;99.90;;;;;;5010839;28;20583;-73
2023/07/08 09:13:19;;;;;;;9.23;3.92;;;21.50;99.90;;;;;;5027683;28;20224;-72
2023/07/08 09:15:44;;;;;;;8.23;3.35;;;21.80;99.90;;;;;;5030590;28;20235;-73
2023/07/08 09:18:25;;;;;;;8.85;3.85;;;22.00;99.90;;;;;;5030439;28;20170;-73
2023/07/08 09:20:53;;;;;;;7.28;3.25;;;22.00;99.90;;;;;;5030350;28;20220;-72
2023/07/08 09:23:30;;;;;;;7.38;3.30;;;22.00;99.90;;;;;;5029811;28;20280;-72
2023/07/08 09:26:26;;;;;;;9.02;3.30;;;21.80;99.90;;;;;;5031781;28;20174;-72
2023/07/08 09:28:51;;;;;;;10.25;3.50;;;21.80;99.90;;;;;;5021687;28;20234;-72
2023/07/08 09:31:38;;;;;;;7.70;3.40;;;22.50;99.90;;;;;;5034341;28;20233;-72
2023/07/08 09:34:08;;;;;;;12.52;3.30;;;22.90;99.90;;;;;;5033983;28;20601;-72
2023/07/08 09:36:40;;;;;;;9.57;3.30;;;22.30;99.90;;;;;;5034150;28;20173;-71
2023/07/08 09:39:14;;;;;;;10.45;3.10;;;22.30;99.90;;;;;;5033608;28;20177;-70
2023/07/08 09:41:42;;;;;;;7.38;2.85;;;22.70;99.90;;;;;;5033647;28;20632;-73
2023/07/08 09:44:19;;;;;;;8.38;3.47;;;22.80;99.90;;;;;;5033196;28;20178;-72
2023/07/08 09:46:45;;;;;;;12.88;3.03;;;22.60;99.90;;;;;;5033860;28;20950;-72
2023/07/08 09:49:18;;;;;;;14.02;3.35;;;22.40;99.90;;;;;;5032534;28;20265;-72
2023/07/08 09:51:45;;;;;;;6.53;2.70;;;22.20;99.90;;;;;;5033781;28;20275;-71
2023/07/08 09:54:10;;;;;;;10.77;3.53;;;22.20;99.90;;;;;;5033666;28;20252;-71
2023/07/08 09:56:42;;;;;;;6.80;3.15;;;22.30;99.90;;;;;;5033788;28;20785;-71
2023/07/08 09:59:13;;;;;;;10.68;3.63;;;22.30;99.90;;;;;;5033664;28;20178;-71
2023/07/08 10:01:40;;;;;;;9.05;3.13;;;22.20;99.90;;;;;;5033617;28;20182;-70
2023/07/08 10:04:06;;;;;;;11.25;3.10;;;22.20;99.90;;;;;;5033521;28;20177;-72
2023/07/08 10:06:34;;;;;;;10.13;3.65;;;22.20;99.90;;;;;;5033471;28;20188;-72
2023/07/08 10:09:14;;;;;;;12.30;3.22;;;22.20;99.90;;;;;;5033582;28;20170;-72
2023/07/08 10:11:46;;;;;;;7.78;3.05;;;22.10;99.90;;;;;;5033424;28;20233;-72
2023/07/08 10:14:26;;;;;;;8.35;2.83;;;22.10;99.90;;;;;;5033392;28;20252;-73
2023/07/08 10:16:52;;;;;;;7.18;2.75;;;22.00;99.90;;;;;;5033236;28;20176;-72
2023/07/08 10:19:20;;;;;;;7.63;3.10;;;22.00;99.90;;;;;;5033399;28;20177;-72
2023/07/08 10:22:10;;;;;;;10.15;2.83;;;22.10;99.90;;;;;;5032257;28;20173;-71
2023/07/08 10:24:48;;;;;;;9.40;3.38;;;22.20;99.90;;;;;;5032121;28;20182;-71
2023/07/08 10:27:40;;;;;;;8.95;2.80;;;22.20;99.90;;;;;;5033185;28;20236;-72
2023/07/08 10:30:06;;;;;;;11.10;3.25;;;22.20;99.90;;;;;;5033239;28;20169;-72
2023/07/08 10:32:53;;;;;;;10.35;3.05;;;22.20;99.90;;;;;;5033225;28;20927;-72
2023/07/08 10:35:25;;;;;;;10.43;3.08;;;22.50;99.90;;;;;;5033039;28;20177;-72
2023/07/08 10:38:10;;;;;;;10.20;3.08;;;22.50;99.90;;;;;;5032353;28;20251;-71
2023/07/08 10:40:48;;;;;;;10.93;3.25;;;22.60;99.90;;;;;;5032929;28;20668;-72
2023/07/08 10:43:44;;;;;;;10.20;3.03;;;22.50;99.90;;;;;;5032922;28;20178;-72
2023/07/08 10:46:18;;;;;;;11.50;3.03;;;22.20;99.90;;;;;;5032954;28;20166;-72
2023/07/08 10:48:53;;;;;;;16.60;3.33;;;22.40;99.90;;;;;;5032645;28;20231;-71
2023/07/08 10:51:27;;;;;;;10.70;3.20;;;22.40;99.90;;;;;;5032624;28;20205;-72
2023/07/08 10:54:08;;;;;;;11.45;3.00;;;22.40;99.90;;;;;;5032673;28;20173;-71
2023/07/08 10:56:54;;;;;;;11.45;3.10;;;22.20;99.90;;;;;;5033501;28;20177;-72
2023/07/08 10:59:58;;;;;;;10.50;2.80;;;22.70;99.90;;;;;;5033252;28;20169;-72
2023/07/08 11:02:38;;;;;;;10.75;3.45;;;23.00;99.90;;;;;;4971622;28;20217;-72
2023/07/08 11:05:16;;;;;;;11.02;3.35;;;23.10;99.90;;;;;;5027281;28;20232;-72
2023/07/08 11:07:53;;;;;;;11.60;3.17;;;22.90;99.90;;;;;;5032796;28;20228;-72
2023/07/08 11:10:40;;;;;;;11.98;3.53;;;23.30;99.90;;;;;;5032491;28;20178;-72
2023/07/08 11:13:12;;;;;;;12.27;3.55;;;23.70;99.90;;;;;;5032220;28;20367;-71
2023/07/08 11:15:52;;;;;;;12.00;3.85;;;23.90;99.90;;;;;;5032420;28;20170;-72
2023/07/08 11:18:36;;;;;;;12.57;2.90;;;23.40;99.90;;;;;;5032129;28;20178;-72
2023/07/08 11:21:19;;;;;;;12.52;3.30;;;23.50;99.90;;;;;;5032160;28;20193;-72
2023/07/08 11:23:52;;;;;;;11.35;3.45;;;23.50;99.90;;;;;;5032150;28;20252;-72
2023/07/08 11:26:51;;;;;;;13.07;3.30;;;23.60;99.90;;;;;;5032103;28;20668;-72
2023/07/08 11:29:39;;;;;;;9.80;3.42;;;23.80;99.90;;;;;;5032111;28;20196;-71
2023/07/08 11:32:08;;;;;;;15.38;3.40;;;24.00;99.90;;;;;;5031883;28;20275;-74
2023/07/08 11:34:36;;;;;;;10.63;3.22;;;24.00;99.90;;;;;;5031902;28;20182;-71
2023/07/08 11:37:03;;;;;;;13.73;4.18;;;24.10;99.90;;;;;;5031847;28;20198;-71
2023/07/08 11:39:48;;;;;;;10.68;3.35;;;23.90;99.90;;;;;;5030672;28;20172;-73
2023/07/08 11:42:22;;;;;;;11.30;3.38;;;23.80;99.90;;;;;;5021103;28;20193;-71
2023/07/08 11:44:55;;;;;;;12.60;3.25;;;23.60;99.90;;;;;;5047087;28;20204;-70
2023/07/08 11:47:40;;;;;;;21.35;4.13;;;23.60;99.90;;;;;;5031553;28;20253;-72
2023/07/08 11:50:27;;;;;;;8.45;2.78;;;23.70;99.90;;;;;;5031588;28;20277;-72
2023/07/08 11:53:07;;;;;;;14.55;3.20;;;24.00;99.90;;;;;;5031801;28;20221;-72
2023/07/08 11:56:12;;;;;;;13.68;3.28;;;23.60;99.90;;;;;;5031747;28;20172;-73
2023/07/08 11:58:52;;;;;;;11.45;3.80;;;23.40;99.90;;;;;;5018227;28;20189;-72
2023/07/08 12:01:18;;;;;;;8.52;3.00;;;;;;;;;;5031825;28;20239;-72
2023/07/08 12:04:07;;;;;;;13.50;3.40;;;22.60;99.90;;;;;;5031321;28;20193;-71
2023/07/08 12:06:36;;;;;;;8.93;2.78;;;22.60;99.90;;;;;;5031565;28;20197;-71
2023/07/08 12:09:23;;;;;;;13.40;3.47;;;22.50;99.90;;;;;;5031431;28;20184;-72
2023/07/08 12:11:53;;;;;;;14.75;4.30;;;22.20;99.90;;;;;;5031102;28;20214;-71
2023/07/08 12:14:19;;;;;;;17.00;4.22;;;;;;;;;;5031293;28;20253;-70
2023/07/08 12:16:45;;;;;;;13.13;3.30;;;22.50;99.90;;;;;;5031328;28;20647;-69
2023/07/08 12:19:15;;;;;;;12.98;3.55;;;22.30;99.90;;;;;;5028997;28;20178;-70
2023/07/08 12:21:41;;;;;;;14.98;4.00;;;22.10;99.90;;;;;;5019963;28;20660;-71
2023/07/08 12:24:10;;;;;;;14.85;3.28;;;21.80;99.90;;;;;;5031177;28;20177;-72
2023/07/08 12:26:36;;;;;;;15.88;3.63;;;21.40;99.90;;;;;;5015990;28;20232;-70
2023/07/08 12:29:02;;;;;;;20.63;4.30;;;;;;;;;;5011306;28;20171;-72
2023/07/08 12:31:28;;;;;;;14.20;4.10;;;21.00;99.90;;;;;;5011244;28;20692;-71
2023/07/08 12:33:55;;;;;;;12.95;4.45;;;20.70;99.90;;;;;;5011433;28;20178;-72
2023/07/08 12:36:25;;;;;;;18.38;4.95;;;20.60;99.90;;;;;;5011270;28;20201;-71
2023/07/08 12:38:52;;;;;;;16.98;5.32;;;20.60;99.90;;;;;;5026724;28;20670;-73
2023/07/08 12:41:35;;;;;;;20.15;4.63;;;20.50;99.90;;;;;;5030891;28;20181;-72
2023/07/08 12:44:02;;;;;;;13.88;4.05;;;20.70;99.90;;;;;;5029990;28;20196;-72
2023/07/08 12:46:28;;;;;;;11.18;4.20;;;20.70;99.90;;;;;;5031003;28;20176;-72
2023/07/08 12:48:54;;;;;;;8.23;3.63;;;20.80;99.90;;;;;;5030838;28;20185;-73
2023/07/08 12:51:23;;;;;;;13.05;3.95;;;20.80;99.90;;;;;;5030783;28;20745;-72
2023/07/08 12:53:49;;;;;;;13.80;4.32;;;20.80;99.90;;;;;;5031031;28;20170;-72
2023/07/08 12:56:15;;;;;;;8.60;3.90;;;20.80;99.90;;;;;;5030914;28;20177;-72
2023/07/08 12:58:44;;;;;;;12.90;4.00;;;20.80;99.90;;;;;;5030903;28;20174;-72